Time;durP1;ratioP1;P1;durP2;ratioP2;P2;SDS_P1;SDS_P2;PMS_P1;PMS_P2;Temp;Humidity;BMP_temperature;BMP_pressure;BME280_temperature;BME280_humidity;BME280_pressure;Samples;Min_cycle;Max_cycle;Signal;HPM_P1;HPM_P2
2021/07/08 00:00:39;;;;;;;8.15;5.53;;;10.60;99.90;;;;;;5060855;28;20394;-79
2021/07/08 00:03:06;;;;;;;9.57;6.63;;;10.70;99.90;;;;;;5068775;28;20401;-79
2021/07/08 00:05:38;;;;;;;10.63;6.40;;;10.80;99.90;;;;;;5055084;28;20994;-79
2021/07/08 00:08:06;;;;;;;8.98;6.75;;;10.80;99.90;;;;;;5065901;28;20402;-78
2021/07/08 00:10:39;;;;;;;7.68;6.60;;;10.90;99.90;;;;;;5060700;28;20389;-79
2021/07/08 00:13:06;;;;;;;10.52;6.47;;;10.90;99.90;;;;;;5054331;28;20399;-80
2021/07/08 00:15:33;;;;;;;10.68;6.82;;;11.00;99.90;;;;;;5049447;28;20396;-79
2021/07/08 00:18:01;;;;;;;12.20;7.27;;;10.90;99.90;;;;;;5049675;28;20468;-80
2021/07/08 00:20:29;;;;;;;11.23;6.77;;;11.10;99.90;;;;;;5049409;28;20403;-80
2021/07/08 00:22:56;;;;;;;7.60;6.40;;;11.30;99.90;;;;;;5056267;28;20378;-79
2021/07/08 00:25:26;;;;;;;7.70;6.07;;;11.60;99.90;;;;;;5066887;28;20749;-80
2021/07/08 00:27:54;;;;;;;8.88;5.78;;;11.80;99.90;;;;;;5062943;28;20382;-80
2021/07/08 00:30:22;;;;;;;11.38;5.78;;;12.00;99.90;;;;;;5050422;28;20391;-79
2021/07/08 00:32:50;;;;;;;7.40;5.33;;;12.20;99.90;;;;;;5065852;28;20428;-79
2021/07/08 00:35:17;;;;;;;7.55;4.88;;;12.20;99.90;;;;;;5055232;28;20530;-79
2021/07/08 00:37:44;;;;;;;7.15;5.10;;;12.20;99.90;;;;;;5055556;28;20406;-82
2021/07/08 00:40:13;;;;;;;7.22;5.10;;;12.10;99.90;;;;;;5051296;28;20388;-79
2021/07/08 00:42:41;;;;;;;8.68;5.63;;;11.90;99.90;;;;;;5059943;28;20414;-79
2021/07/08 00:45:11;;;;;;;7.40;5.30;;;11.90;99.90;;;;;;5053444;28;20501;-79
2021/07/08 00:47:39;;;;;;;8.60;5.03;;;11.90;99.90;;;;;;5061725;28;20743;-80
2021/07/08 00:50:08;;;;;;;7.38;5.00;;;12.00;99.90;;;;;;5056886;28;20403;-79
2021/07/08 00:52:36;;;;;;;8.60;4.80;;;12.00;99.90;;;;;;5065786;28;20394;-79
2021/07/08 00:55:04;;;;;;;6.80;4.00;;;12.00;99.90;;;;;;5065769;28;20408;-79
2021/07/08 00:57:31;;;;;;;7.82;4.70;;;12.10;99.90;;;;;;5061765;28;20382;-79
2021/07/08 00:59:58;;;;;;;6.15;4.80;;;12.10;99.90;;;;;;5061687;28;20972;-79
2021/07/08 01:02:31;;;;;;;4.70;3.97;;;12.20;99.90;;;;;;5073865;28;20509;-80
2021/07/08 01:04:58;;;;;;;6.88;4.53;;;12.20;99.90;;;;;;5065096;28;20483;-79
2021/07/08 01:07:26;;;;;;;6.47;3.75;;;12.20;99.90;;;;;;5051514;28;20534;-78
2021/07/08 01:09:53;;;;;;;3.88;3.35;;;12.30;99.90;;;;;;5065786;28;20379;-80
2021/07/08 01:12:20;;;;;;;5.22;3.08;;;12.40;99.90;;;;;;5057277;28;20412;-80
2021/07/08 01:14:47;;;;;;;5.72;3.03;;;12.40;99.90;;;;;;5067291;28;20882;-79
2021/07/08 01:17:15;;;;;;;3.47;2.87;;;12.50;99.90;;;;;;5071837;28;20391;-80
2021/07/08 01:19:42;;;;;;;6.15;3.20;;;12.50;99.90;;;;;;5057360;28;20479;-79
2021/07/08 01:22:10;;;;;;;3.67;2.80;;;12.60;99.90;;;;;;5059148;28;20440;-79
2021/07/08 01:24:38;;;;;;;3.45;2.80;;;12.70;99.90;;;;;;5056729;28;20415;-80
2021/07/08 01:27:06;;;;;;;4.07;3.20;;;12.70;99.90;;;;;;5063344;28;20374;-79
2021/07/08 01:29:33;;;;;;;6.63;3.13;;;12.70;99.90;;;;;;5075599;28;20389;-80
2021/07/08 01:32:00;;;;;;;6.63;3.60;;;12.70;99.90;;;;;;5060489;28;20418;-80
2021/07/08 01:34:27;;;;;;;4.10;3.30;;;12.70;99.90;;;;;;5056438;28;20468;-79
2021/07/08 01:36:54;;;;;;;5.05;3.47;;;12.80;99.90;;;;;;5060452;28;20381;-81
2021/07/08 01:39:21;;;;;;;4.00;3.08;;;12.70;99.90;;;;;;5076361;28;20405;-79
2021/07/08 01:41:48;;;;;;;4.65;3.10;;;12.60;99.90;;;;;;5072375;28;20400;-81
2021/07/08 01:44:16;;;;;;;6.32;3.30;;;12.70;99.90;;;;;;5087291;28;20511;-79
2021/07/08 01:46:44;;;;;;;4.65;3.20;;;12.70;99.90;;;;;;5071202;28;20406;-79
2021/07/08 01:49:11;;;;;;;4.05;2.90;;;12.70;99.90;;;;;;5063703;28;20391;-80
2021/07/08 01:51:39;;;;;;;8.07;3.33;;;12.80;99.90;;;;;;5058184;28;20408;-80
2021/07/08 01:54:10;;;;;;;4.35;3.20;;;13.00;99.90;;;;;;5065633;28;20815;-79
2021/07/08 01:56:38;;;;;;;5.85;3.38;;;13.00;99.90;;;;;;5059196;28;20382;-80
2021/07/08 01:59:05;;;;;;;4.93;3.03;;;13.00;99.90;;;;;;5065641;28;20904;-80
2021/07/08 02:01:33;;;;;;;6.03;3.47;;;12.90;99.90;;;;;;5053121;28;20392;-79
2021/07/08 02:04:01;;;;;;;6.13;3.30;;;13.00;99.90;;;;;;5066771;28;20399;-80
2021/07/08 02:06:29;;;;;;;6.20;3.22;;;13.00;99.90;;;;;;5057177;28;20382;-79
2021/07/08 02:08:56;;;;;;;3.33;2.90;;;13.10;99.90;;;;;;5053511;28;20380;-80
2021/07/08 02:11:23;;;;;;;7.07;3.10;;;13.10;99.90;;;;;;5060803;28;20384;-80
2021/07/08 02:13:50;;;;;;;4.80;3.40;;;13.10;99.90;;;;;;5067218;28;20503;-79
2021/07/08 02:16:18;;;;;;;4.63;3.00;;;13.10;99.90;;;;;;5064591;28;20883;-81
2021/07/08 02:18:46;;;;;;;6.57;3.10;;;13.10;99.90;;;;;;5057705;28;20395;-80
2021/07/08 02:21:15;;;;;;;6.20;3.13;;;13.20;99.90;;;;;;5076367;28;20894;-80
2021/07/08 02:23:42;;;;;;;3.80;2.50;;;13.30;99.90;;;;;;5070971;28;20442;-80
2021/07/08 02:26:10;;;;;;;4.67;2.60;;;13.30;99.90;;;;;;5062111;28;20411;-80
2021/07/08 02:28:39;;;;;;;3.55;2.78;;;13.40;99.90;;;;;;5065821;28;20387;-80
2021/07/08 02:31:09;;;;;;;3.55;2.70;;;13.40;99.90;;;;;;5067297;28;20411;-79
2021/07/08 02:33:36;;;;;;;4.83;2.40;;;13.60;99.90;;;;;;5065018;28;20450;-80
2021/07/08 02:36:04;;;;;;;4.25;2.47;;;13.70;99.90;;;;;;5054278;28;20915;-80
2021/07/08 02:38:32;;;;;;;5.45;2.75;;;13.80;99.90;;;;;;5051047;28;20919;-80
2021/07/08 02:41:00;;;;;;;5.00;1.92;;;13.90;99.90;;;;;;5052828;28;20910;-80
2021/07/08 02:43:30;;;;;;;3.80;2.15;;;14.00;99.90;;;;;;5054069;28;20437;-80
2021/07/08 02:45:58;;;;;;;3.20;2.30;;;14.00;99.90;;;;;;5056821;28;20916;-78
2021/07/08 02:48:25;;;;;;;4.10;2.58;;;14.10;99.90;;;;;;5068190;28;20389;-79
2021/07/08 02:50:54;;;;;;;3.55;2.13;;;14.10;99.90;;;;;;5063970;28;20394;-82
2021/07/08 02:53:21;;;;;;;3.30;1.58;;;14.20;99.90;;;;;;5051225;28;20771;-81
2021/07/08 02:55:49;;;;;;;2.90;1.42;;;14.30;99.90;;;;;;5052847;28;20411;-79
2021/07/08 02:58:16;;;;;;;1.88;1.10;;;14.30;99.90;;;;;;5051387;28;20445;-81
2021/07/08 03:00:43;;;;;;;3.65;1.00;;;14.30;99.90;;;;;;5061268;28;20378;-80
2021/07/08 03:03:11;;;;;;;5.10;1.30;;;14.40;99.90;;;;;;5063411;28;20478;-80
2021/07/08 03:05:41;;;;;;;1.30;0.98;;;14.40;99.90;;;;;;5064671;28;20434;-79
2021/07/08 03:08:09;;;;;;;3.33;0.90;;;14.30;99.90;;;;;;5064447;28;20417;-80
2021/07/08 03:10:38;;;;;;;2.20;1.00;;;14.40;99.90;;;;;;5059136;28;20391;-80
2021/07/08 03:13:05;;;;;;;2.40;0.83;;;14.40;99.90;;;;;;5059642;28;20386;-80
2021/07/08 03:15:32;;;;;;;3.08;1.00;;;14.50;99.90;;;;;;5061657;28;20388;-80
2021/07/08 03:18:00;;;;;;;1.02;0.73;;;14.60;99.90;;;;;;5056097;28;20815;-80
2021/07/08 03:20:30;;;;;;;3.20;0.77;;;14.50;99.90;;;;;;5061086;28;20421;-79
2021/07/08 03:22:58;;;;;;;2.80;0.90;;;14.40;99.90;;;;;;5066493;28;20394;-80
2021/07/08 03:25:26;;;;;;;2.65;1.10;;;14.40;99.90;;;;;;5075511;28;20442;-80
2021/07/08 03:27:54;;;;;;;2.78;0.90;;;14.40;99.90;;;;;;5074858;28;20390;-80
2021/07/08 03:30:24;;;;;;;3.58;0.80;;;14.40;99.90;;;;;;5076922;28;20378;-79
2021/07/08 03:32:52;;;;;;;2.13;0.90;;;14.40;99.90;;;;;;5081185;28;20369;-79
2021/07/08 03:35:19;;;;;;;1.50;0.70;;;14.50;99.90;;;;;;5059981;28;20396;-79
2021/07/08 03:37:47;;;;;;;2.13;1.08;;;14.40;99.90;;;;;;5053455;28;20403;-80
2021/07/08 03:40:16;;;;;;;2.70;0.90;;;14.40;99.90;;;;;;5048871;28;20396;-79
2021/07/08 03:42:43;;;;;;;2.67;1.13;;;14.40;99.90;;;;;;5057792;28;20505;-80
2021/07/08 03:45:12;;;;;;;2.67;1.05;;;14.40;99.90;;;;;;5078319;28;20815;-79
2021/07/08 03:47:44;;;;;;;2.87;0.97;;;14.40;99.90;;;;;;5084435;28;22126;-79
2021/07/08 03:50:13;;;;;;;2.90;0.88;;;14.30;99.90;;;;;;5063226;28;20703;-79
2021/07/08 03:52:42;;;;;;;1.10;0.85;;;14.30;99.90;;;;;;5052125;28;20744;-79
2021/07/08 03:55:11;;;;;;;2.70;1.15;;;14.30;99.90;;;;;;5050153;28;20390;-79
2021/07/08 03:57:52;;;;;;;2.90;1.00;;;14.20;99.90;;;;;;5055626;28;20896;-81
2021/07/08 04:00:31;;;;;;;3.70;1.10;;;14.20;99.90;;;;;;5059709;28;20386;-80
2021/07/08 04:03:01;;;;;;;2.72;1.15;;;14.10;99.90;;;;;;5053072;28;20398;-80
2021/07/08 04:05:29;;;;;;;4.82;1.88;;;14.00;99.90;;;;;;5063062;28;20409;-79
2021/07/08 04:07:56;;;;;;;3.88;1.20;;;14.00;99.90;;;;;;5063276;28;20378;-79
2021/07/08 04:10:23;;;;;;;2.10;0.95;;;14.10;99.90;;;;;;5051515;28;21467;-79
2021/07/08 04:12:51;;;;;;;4.97;1.10;;;14.10;99.90;;;;;;5047626;28;20997;-79
2021/07/08 04:15:19;;;;;;;4.35;1.20;;;14.10;99.90;;;;;;5049896;28;20803;-80
2021/07/08 04:17:46;;;;;;;2.78;1.15;;;14.20;99.90;;;;;;5062888;28;20391;-79
2021/07/08 04:20:16;;;;;;;1.92;1.00;;;14.30;99.90;;;;;;5069769;28;20370;-79
2021/07/08 04:22:44;;;;;;;1.40;0.90;;;14.20;99.90;;;;;;5069167;28;20389;-79
2021/07/08 04:25:11;;;;;;;1.50;1.00;;;14.10;99.90;;;;;;5069154;28;20437;-79
2021/07/08 04:27:39;;;;;;;2.90;1.10;;;14.10;99.90;;;;;;5061579;28;20380;-79
2021/07/08 04:30:08;;;;;;;2.20;0.98;;;14.10;99.90;;;;;;5069206;28;20385;-79
2021/07/08 04:32:36;;;;;;;2.17;0.90;;;14.10;99.90;;;;;;5069849;28;20446;-80
2021/07/08 04:35:03;;;;;;;2.95;1.27;;;14.00;99.90;;;;;;5063102;28;20986;-79
2021/07/08 04:37:30;;;;;;;1.50;0.93;;;14.00;99.90;;;;;;5064253;28;20394;-80
2021/07/08 04:39:57;;;;;;;2.75;1.10;;;14.00;99.90;;;;;;5069624;28;20386;-80
2021/07/08 04:42:26;;;;;;;2.95;1.05;;;14.00;99.90;;;;;;5068323;28;20426;-80
2021/07/08 04:44:54;;;;;;;5.60;1.60;;;14.10;99.90;;;;;;5078810;28;20500;-80
2021/07/08 04:47:21;;;;;;;3.83;1.13;;;14.10;99.90;;;;;;5068545;28;20463;-80
2021/07/08 04:49:48;;;;;;;5.63;1.20;;;14.20;99.90;;;;;;5069569;28;20390;-78
2021/07/08 04:52:15;;;;;;;3.42;1.42;;;14.30;99.90;;;;;;5054051;28;20415;-79
2021/07/08 04:54:42;;;;;;;3.92;1.30;;;14.40;99.90;;;;;;5052810;28;20395;-79
2021/07/08 04:57:09;;;;;;;3.53;1.13;;;14.30;99.90;;;;;;5066419;28;20396;-79
2021/07/08 04:59:36;;;;;;;4.45;1.20;;;14.30;99.90;;;;;;5057241;28;20518;-80
2021/07/08 05:02:03;;;;;;;3.57;1.30;;;14.30;99.90;;;;;;5051356;28;20448;-80
2021/07/08 05:04:30;;;;;;;3.67;1.38;;;14.20;99.90;;;;;;5056880;28;20750;-80
2021/07/08 05:06:57;;;;;;;2.60;1.52;;;14.10;99.90;;;;;;5055452;28;20431;-79
2021/07/08 05:09:24;;;;;;;4.40;1.38;;;14.10;99.90;;;;;;5070608;28;20467;-80
2021/07/08 05:11:51;;;;;;;2.80;1.48;;;14.00;99.90;;;;;;5056230;28;21001;-82
2021/07/08 05:14:18;;;;;;;3.75;1.60;;;13.90;99.90;;;;;;5064101;28;20924;-82
2021/07/08 05:16:45;;;;;;;4.97;2.10;;;13.80;99.90;;;;;;5065483;28;20369;-82
2021/07/08 05:19:12;;;;;;;3.87;2.00;;;13.80;99.90;;;;;;5091998;28;20779;-83
2021/07/08 05:21:57;;;;;;;4.35;2.45;;;13.70;99.90;;;;;;5076938;28;20409;-82
2021/07/08 05:24:26;;;;;;;3.78;1.70;;;13.70;99.90;;;;;;5053765;28;20444;-82
2021/07/08 05:26:54;;;;;;;1.88;1.20;;;13.70;99.90;;;;;;5057412;28;20482;-83
2021/07/08 05:29:22;;;;;;;1.63;1.20;;;13.70;99.90;;;;;;5058357;28;20419;-84
2021/07/08 05:31:50;;;;;;;3.15;1.27;;;13.70;99.90;;;;;;5061503;28;20398;-83
2021/07/08 05:34:18;;;;;;;2.30;1.38;;;13.70;99.90;;;;;;5075519;28;20386;-83
2021/07/08 05:36:47;;;;;;;1.88;1.02;;;13.60;99.90;;;;;;5072930;28;20436;-83
2021/07/08 05:39:14;;;;;;;2.80;1.30;;;13.60;99.90;;;;;;5065699;28;20419;-82
2021/07/08 05:41:41;;;;;;;1.38;1.20;;;13.50;99.90;;;;;;5051541;28;20731;-83
2021/07/08 05:44:08;;;;;;;2.40;1.23;;;13.50;99.90;;;;;;5050026;28;20403;-84
2021/07/08 05:46:35;;;;;;;1.60;1.10;;;13.50;99.90;;;;;;5059944;28;20384;-83
2021/07/08 05:49:06;;;;;;;3.20;1.30;;;13.40;99.90;;;;;;5072483;28;20744;-82
2021/07/08 05:51:35;;;;;;;2.38;1.33;;;13.30;99.90;;;;;;5056232;28;20423;-84
2021/07/08 05:54:02;;;;;;;3.07;1.47;;;13.30;99.90;;;;;;5069743;28;20411;-87
2021/07/08 05:56:29;;;;;;;3.03;1.45;;;13.30;99.90;;;;;;5063615;28;20388;-83
2021/07/08 05:58:57;;;;;;;3.72;1.63;;;13.20;99.90;;;;;;5064866;28;20393;-84
2021/07/08 06:01:27;;;;;;;3.22;1.40;;;13.20;99.90;;;;;;5064786;28;20382;-84
2021/07/08 06:03:54;;;;;;;2.55;1.58;;;13.10;99.90;;;;;;5074269;28;20398;-84
2021/07/08 06:06:21;;;;;;;2.20;1.50;;;13.00;99.90;;;;;;5057542;28;20401;-84
2021/07/08 06:08:52;;;;;;;2.55;1.55;;;13.00;99.90;;;;;;5057417;28;21315;-82
2021/07/08 06:11:19;;;;;;;4.05;1.70;;;12.90;99.90;;;;;;5050944;28;20406;-87
2021/07/08 06:13:46;;;;;;;3.90;1.70;;;12.90;99.90;;;;;;5056234;28;20398;-85
2021/07/08 06:16:13;;;;;;;2.80;1.70;;;12.80;99.90;;;;;;5050049;28;20510;-83
2021/07/08 06:18:40;;;;;;;2.17;1.65;;;12.70;99.90;;;;;;5058572;28;20419;-84
2021/07/08 06:21:07;;;;;;;3.13;1.57;;;12.70;99.90;;;;;;5054687;28;20402;-84
2021/07/08 06:23:34;;;;;;;5.15;1.77;;;12.70;99.90;;;;;;5052634;28;20411;-84
2021/07/08 06:26:01;;;;;;;2.97;1.67;;;12.60;99.90;;;;;;5054146;28;20427;-83
2021/07/08 06:28:29;;;;;;;3.25;1.80;;;12.50;99.90;;;;;;5051604;28;20400;-84
2021/07/08 06:30:56;;;;;;;3.13;1.80;;;12.50;99.90;;;;;;5051201;28;20395;-84
2021/07/08 06:33:23;;;;;;;4.93;1.83;;;12.40;99.90;;;;;;5062353;28;20387;-83
2021/07/08 06:35:50;;;;;;;3.15;2.00;;;12.40;99.90;;;;;;5052137;28;20367;-85
2021/07/08 06:38:17;;;;;;;4.90;2.13;;;12.30;99.90;;;;;;5070113;28;20401;-85
2021/07/08 06:40:44;;;;;;;3.90;2.13;;;12.30;99.90;;;;;;5067470;28;20904;-83
2021/07/08 06:43:11;;;;;;;5.35;1.95;;;12.30;99.90;;;;;;5060788;28;20766;-84
2021/07/08 06:45:38;;;;;;;2.20;1.80;;;12.10;99.90;;;;;;5057541;28;20389;-83
2021/07/08 06:48:06;;;;;;;4.80;1.83;;;12.00;99.90;;;;;;5079058;28;20383;-83
2021/07/08 06:50:35;;;;;;;6.35;2.22;;;12.00;99.90;;;;;;5050795;28;20510;-84
2021/07/08 06:53:04;;;;;;;2.83;2.30;;;11.90;99.90;;;;;;5069619;28;20377;-84
2021/07/08 06:55:31;;;;;;;4.65;2.00;;;11.70;99.90;;;;;;5069427;28;20748;-84
2021/07/08 06:57:58;;;;;;;3.07;1.97;;;11.70;99.90;;;;;;5066481;28;20387;-83
2021/07/08 07:00:26;;;;;;;3.90;1.90;;;11.70;99.90;;;;;;5058857;28;20419;-83
2021/07/08 07:02:55;;;;;;;8.30;2.70;;;11.60;99.90;;;;;;5066814;28;20504;-82
2021/07/08 07:05:24;;;;;;;7.90;4.25;;;11.50;99.90;;;;;;5067214;28;20410;-83
2021/07/08 07:07:52;;;;;;;5.77;3.57;;;11.50;99.90;;;;;;5063600;28;20423;-83
2021/07/08 07:10:21;;;;;;;4.80;3.70;;;11.40;99.90;;;;;;5055301;28;20391;-83
2021/07/08 07:12:50;;;;;;;4.85;3.10;;;11.30;99.90;;;;;;5056646;28;20745;-83
2021/07/08 07:15:19;;;;;;;6.32;3.50;;;11.20;99.90;;;;;;5069539;28;20400;-83
2021/07/08 07:17:49;;;;;;;6.53;3.67;;;11.20;99.90;;;;;;5069552;28;20410;-82
2021/07/08 07:20:19;;;;;;;6.57;3.35;;;11.10;99.90;;;;;;5060241;28;20883;-82
2021/07/08 07:22:47;;;;;;;6.28;3.58;;;11.00;99.90;;;;;;5053145;28;20481;-83
2021/07/08 07:25:20;;;;;;;8.70;3.72;;;10.90;99.90;;;;;;5054411;28;20410;-81
2021/07/08 07:27:50;;;;;;;7.95;3.42;;;10.90;99.90;;;;;;5062300;28;20440;-84
2021/07/08 07:30:18;;;;;;;7.38;3.42;;;10.80;99.90;;;;;;5057075;28;20398;-84
2021/07/08 07:32:45;;;;;;;6.85;3.50;;;10.80;99.90;;;;;;5056465;28;20442;-85
2021/07/08 07:35:13;;;;;;;6.53;4.00;;;10.70;99.90;;;;;;5049245;28;21036;-83
2021/07/08 07:37:41;;;;;;;6.87;4.43;;;10.70;99.90;;;;;;5048101;28;20399;-83
2021/07/08 07:40:08;;;;;;;8.73;4.70;;;10.60;99.90;;;;;;5068151;28;20775;-82
2021/07/08 07:42:36;;;;;;;6.03;3.90;;;10.60;99.90;;;;;;5051383;28;20380;-83
2021/07/08 07:45:08;;;;;;;9.20;5.07;;;10.60;99.90;;;;;;5051229;28;20407;-83
2021/07/08 07:47:35;;;;;;;6.47;4.07;;;10.60;99.90;;;;;;5059220;28;20485;-83
2021/07/08 07:50:03;;;;;;;8.25;4.38;;;10.60;99.90;;;;;;5047834;28;20498;-84
2021/07/08 07:52:30;;;;;;;29.67;5.93;;;10.70;99.90;;;;;;5047549;28;20392;-84
2021/07/08 07:54:57;;;;;;;9.60;5.03;;;10.70;99.90;;;;;;5052569;28;20461;-83
2021/07/08 07:57:24;;;;;;;8.68;4.78;;;10.60;99.90;;;;;;5055093;28;20477;-84
2021/07/08 07:59:51;;;;;;;11.27;5.35;;;10.60;99.90;;;;;;5054306;28;20383;-83
2021/07/08 08:02:19;;;;;;;8.65;5.13;;;10.60;99.90;;;;;;5067032;28;20379;-83
2021/07/08 08:10:19;;;;;;;12.85;4.88;;;10.60;99.90;;;;;;5063446;28;20373;-84
2021/07/08 08:12:50;;;;;;;7.97;4.70;;;10.60;99.90;;;;;;5067751;28;20761;-85
2021/07/08 08:15:18;;;;;;;11.55;5.03;;;10.60;99.90;;;;;;5057016;28;20382;-84
2021/07/08 08:17:47;;;;;;;9.13;4.43;;;10.60;99.90;;;;;;5055502;28;20434;-85
2021/07/08 08:20:16;;;;;;;8.25;4.70;;;10.60;99.90;;;;;;5054869;28;20388;-83
2021/07/08 08:22:43;;;;;;;10.10;4.68;;;10.70;99.90;;;;;;5049467;28;20423;-85
2021/07/08 08:25:12;;;;;;;12.95;5.40;;;10.70;99.90;;;;;;5054153;28;20502;-85
2021/07/08 08:27:39;;;;;;;11.00;4.70;;;10.70;99.90;;;;;;5049538;28;20388;-84
2021/07/08 08:30:09;;;;;;;8.25;4.15;;;10.80;99.90;;;;;;5047912;28;20724;-85
2021/07/08 08:32:36;;;;;;;10.70;4.35;;;10.80;99.90;;;;;;5059550;28;20500;-83
2021/07/08 08:35:03;;;;;;;8.25;4.03;;;10.80;99.90;;;;;;5060321;28;20492;-84
2021/07/08 08:37:30;;;;;;;9.55;4.10;;;10.80;99.90;;;;;;5052335;28;20943;-83
2021/07/08 08:39:57;;;;;;;8.93;4.07;;;10.80;99.90;;;;;;5052689;28;20388;-82
2021/07/08 08:42:25;;;;;;;12.73;4.40;;;10.80;99.90;;;;;;5054213;28;20384;-81
2021/07/08 08:44:53;;;;;;;8.75;4.18;;;10.80;99.90;;;;;;5052305;28;20435;-80
2021/07/08 08:47:20;;;;;;;9.32;4.35;;;10.80;99.90;;;;;;5048328;28;20395;-82
2021/07/08 08:49:47;;;;;;;11.10;4.43;;;10.70;99.90;;;;;;5052158;28;20399;-81
2021/07/08 08:52:15;;;;;;;8.57;4.15;;;10.70;99.90;;;;;;5066730;28;20394;-82
2021/07/08 08:54:42;;;;;;;9.90;4.35;;;10.70;99.90;;;;;;5068461;28;20381;-82
2021/07/08 08:57:10;;;;;;;10.43;4.60;;;10.60;99.90;;;;;;5056506;28;21152;-81
2021/07/08 08:59:37;;;;;;;10.48;4.72;;;10.60;99.90;;;;;;5051177;28;20394;-81
2021/07/08 09:02:11;;;;;;;11.32;4.60;;;10.60;99.90;;;;;;5057853;28;20398;-81
2021/07/08 09:04:38;;;;;;;10.50;4.57;;;10.70;99.90;;;;;;5069020;28;20840;-82
2021/07/08 09:07:22;;;;;;;9.25;5.07;;;10.60;99.90;;;;;;5052925;28;20523;-82
2021/07/08 09:09:59;;;;;;;10.73;5.15;;;10.60;99.90;;;;;;5062518;28;20381;-82
2021/07/08 09:12:27;;;;;;;11.33;5.30;;;10.60;99.90;;;;;;5056785;28;20852;-82
2021/07/08 09:15:15;;;;;;;12.23;5.28;;;10.70;99.90;;;;;;5071561;28;20432;-82
2021/07/08 09:17:45;;;;;;;13.98;5.97;;;10.70;99.90;;;;;;5072938;28;20402;-83
2021/07/08 09:20:14;;;;;;;12.48;5.70;;;10.80;99.90;;;;;;5057996;28;20409;-82
2021/07/08 09:22:42;;;;;;;11.23;5.60;;;10.70;99.90;;;;;;5060889;28;20406;-81
2021/07/08 09:25:21;;;;;;;14.18;5.95;;;10.80;99.90;;;;;;5074171;28;20946;-81
2021/07/08 09:28:16;;;;;;;13.18;5.65;;;10.70;99.90;;;;;;5059325;28;20813;-83
2021/07/08 09:30:45;;;;;;;10.82;5.97;;;10.70;99.90;;;;;;5057740;28;20392;-82
2021/07/08 09:33:36;;;;;;;13.82;6.00;;;10.70;99.90;;;;;;5072022;28;20432;-82
2021/07/08 09:36:11;;;;;;;15.02;6.05;;;10.60;99.90;;;;;;5060908;28;20385;-82
2021/07/08 09:38:41;;;;;;;12.97;5.63;;;10.60;99.90;;;;;;5076096;28;20785;-83
2021/07/08 09:41:17;;;;;;;10.73;5.30;;;10.50;99.90;;;;;;5062234;28;20371;-81
2021/07/08 09:43:46;;;;;;;13.85;6.10;;;10.50;99.90;;;;;;5053895;28;20408;-80
2021/07/08 09:46:15;;;;;;;10.48;5.78;;;10.40;99.90;;;;;;5071875;28;20380;-81
2021/07/08 09:49:09;;;;;;;11.82;5.75;;;10.40;99.90;;;;;;5067439;28;20382;-84
2021/07/08 09:51:36;;;;;;;12.40;5.95;;;10.40;99.90;;;;;;5066701;28;20522;-81
2021/07/08 09:54:11;;;;;;;11.90;5.70;;;10.30;99.90;;;;;;5055457;28;20392;-82
2021/07/08 09:56:48;;;;;;;12.60;6.53;;;10.30;99.90;;;;;;5061807;28;20390;-82
2021/07/08 09:59:17;;;;;;;14.50;6.95;;;10.20;99.90;;;;;;5060063;28;20402;-82
2021/07/08 10:01:46;;;;;;;17.10;7.43;;;10.20;99.90;;;;;;5050579;28;20774;-82
2021/07/08 10:04:13;;;;;;;16.52;7.05;;;10.20;99.90;;;;;;5053347;28;20490;-83
2021/07/08 10:06:41;;;;;;;13.32;5.57;;;10.10;99.90;;;;;;5052839;28;20735;-82
2021/07/08 10:09:14;;;;;;;15.45;5.88;;;10.20;99.90;;;;;;5059028;28;20420;-85
2021/07/08 10:11:41;;;;;;;15.25;5.78;;;10.20;99.90;;;;;;5069096;28;20820;-83
2021/07/08 10:14:08;;;;;;;10.95;6.13;;;10.20;99.90;;;;;;5056297;28;22066;-83
2021/07/08 10:16:37;;;;;;;12.67;5.80;;;10.10;99.90;;;;;;5056437;28;20396;-83
2021/07/08 10:19:06;;;;;;;12.67;5.63;;;10.10;99.90;;;;;;5048174;28;20801;-82
2021/07/08 10:21:33;;;;;;;12.65;6.03;;;10.10;99.90;;;;;;5049885;28;20738;-82
2021/07/08 10:24:02;;;;;;;14.13;6.25;;;10.10;99.90;;;;;;5054036;28;20456;-83
2021/07/08 10:26:29;;;;;;;11.02;5.60;;;10.00;99.90;;;;;;5059830;28;20941;-82
2021/07/08 10:28:59;;;;;;;17.80;6.07;;;10.10;99.90;;;;;;5049054;28;20411;-83
2021/07/08 10:31:26;;;;;;;13.18;5.85;;;10.00;99.90;;;;;;5058719;28;20390;-83
2021/07/08 10:34:08;;;;;;;13.23;5.77;;;10.00;99.90;;;;;;5062564;28;20386;-82
2021/07/08 10:36:36;;;;;;;8.65;5.05;;;10.00;99.90;;;;;;5058144;28;20397;-81
2021/07/08 10:39:14;;;;;;;13.68;5.00;;;10.00;99.90;;;;;;5061387;28;20868;-81
2021/07/08 10:41:43;;;;;;;14.38;6.38;;;10.00;99.90;;;;;;5052505;28;20399;-81
2021/07/08 10:44:34;;;;;;;16.25;9.45;;;10.10;99.90;;;;;;5087810;28;20422;-81
2021/07/08 10:47:02;;;;;;;25.10;12.73;;;10.10;99.90;;;;;;5057282;28;20890;-82
2021/07/08 10:49:38;;;;;;;22.90;16.95;;;10.00;99.90;;;;;;5047390;28;20407;-82
2021/07/08 10:52:09;;;;;;;30.30;20.33;;;10.00;99.90;;;;;;5052683;28;20924;-82
2021/07/08 10:54:46;;;;;;;29.15;20.98;;;9.90;99.90;;;;;;5055289;28;20396;-82
2021/07/08 10:57:39;;;;;;;20.33;16.30;;;9.90;99.90;;;;;;5047973;28;20399;-83
2021/07/08 11:00:30;;;;;;;22.45;15.05;;;9.80;99.90;;;;;;5055607;28;20393;-82
2021/07/08 11:02:57;;;;;;;21.13;13.05;;;9.80;99.90;;;;;;5068685;28;20441;-82
2021/07/08 11:05:55;;;;;;;23.88;12.98;;;9.70;99.90;;;;;;5046557;28;20422;-82
2021/07/08 11:09:06;;;;;;;20.30;12.67;;;9.60;99.90;;;;;;5075466;28;20381;-81
2021/07/08 11:11:33;;;;;;;18.10;11.50;;;9.60;99.90;;;;;;5048623;28;20404;-83
2021/07/08 11:14:14;;;;;;;20.95;13.65;;;9.60;99.90;;;;;;5058043;28;20390;-82
2021/07/08 11:16:42;;;;;;;21.58;13.95;;;9.60;99.90;;;;;;5058186;28;20427;-82
2021/07/08 11:19:12;;;;;;;25.83;15.50;;;9.50;99.90;;;;;;5046998;28;20423;-83
2021/07/08 11:21:51;;;;;;;20.33;14.77;;;9.50;99.90;;;;;;5061152;28;20389;-82
2021/07/08 11:24:22;;;;;;;21.83;15.70;;;9.30;99.90;;;;;;5064511;28;20416;-83
2021/07/08 11:26:53;;;;;;;25.30;16.77;;;9.20;99.90;;;;;;5069725;28;20384;-85
2021/07/08 11:29:46;;;;;;;24.10;17.45;;;9.20;99.90;;;;;;5064515;28;20384;-83
2021/07/08 11:32:37;;;;;;;23.60;17.27;;;9.10;99.90;;;;;;5058992;28;20389;-83
2021/07/08 11:35:27;;;;;;;24.48;18.40;;;9.00;99.90;;;;;;5050169;28;20796;-84
2021/07/08 11:38:15;;;;;;;25.20;19.02;;;8.90;99.90;;;;;;5047259;28;20382;-83
2021/07/08 11:40:48;;;;;;;31.90;24.00;;;8.70;99.90;;;;;;5049429;28;20400;-83
2021/07/08 11:43:34;;;;;;;27.95;23.30;;;8.60;99.90;;;;;;5043940;28;20441;-83
2021/07/08 11:46:14;;;;;;;33.20;22.50;;;8.50;99.90;;;;;;5053374;28;20944;-83
2021/07/08 11:48:43;;;;;;;29.60;22.58;;;8.60;99.90;;;;;;5047278;28;20395;-83
2021/07/08 11:51:18;;;;;;;28.63;21.65;;;8.60;99.90;;;;;;5058059;28;20413;-83
2021/07/08 11:53:48;;;;;;;26.67;21.03;;;8.70;99.90;;;;;;5051898;28;20602;-83
2021/07/08 11:56:21;;;;;;;24.27;17.27;;;8.70;99.90;;;;;;5066261;28;20433;-84
2021/07/08 11:58:48;;;;;;;26.08;18.05;;;8.80;99.90;;;;;;5058519;28;20430;-83
2021/07/08 12:01:19;;;;;;;22.00;16.33;;;8.80;99.90;;;;;;5054461;28;20386;-83
2021/07/08 12:03:48;;;;;;;22.70;14.87;;;8.80;99.90;;;;;;5069118;28;20394;-83
2021/07/08 12:06:27;;;;;;;19.20;14.35;;;8.90;99.90;;;;;;5053382;28;20384;-83
2021/07/08 12:09:00;;;;;;;19.63;12.77;;;8.90;99.90;;;;;;5064244;28;20368;-83
2021/07/08 12:11:38;;;;;;;19.00;11.35;;;8.90;99.90;;;;;;5057149;28;20437;-83
2021/07/08 12:14:11;;;;;;;16.48;11.38;;;9.00;99.90;;;;;;5048444;28;20383;-83
2021/07/08 12:16:44;;;;;;;17.20;11.45;;;9.10;99.90;;;;;;5048768;28;20474;-82
2021/07/08 12:19:28;;;;;;;18.60;12.20;;;9.10;99.90;;;;;;5051184;28;21201;-83
2021/07/08 12:21:58;;;;;;;20.05;11.90;;;9.10;99.90;;;;;;5068753;28;20386;-83
2021/07/08 12:24:30;;;;;;;17.02;10.15;;;9.10;99.90;;;;;;5068698;28;20406;-83
2021/07/08 12:26:59;;;;;;;14.02;9.75;;;9.10;99.90;;;;;;5051135;28;20390;-84
2021/07/08 12:29:29;;;;;;;18.15;10.88;;;9.20;99.90;;;;;;5060852;28;20746;-83
2021/07/08 12:32:03;;;;;;;20.07;12.80;;;9.20;99.90;;;;;;5065599;28;20385;-83
2021/07/08 12:34:53;;;;;;;16.23;13.93;;;9.30;99.90;;;;;;5066270;28;20880;-83
2021/07/08 12:37:25;;;;;;;22.10;16.13;;;9.30;99.90;;;;;;5068399;28;20385;-82
2021/07/08 12:39:58;;;;;;;21.30;16.25;;;9.20;99.90;;;;;;5070378;28;20477;-83
2021/07/08 12:42:30;;;;;;;20.17;15.70;;;9.20;99.90;;;;;;5052106;28;20406;-83
2021/07/08 12:45:04;;;;;;;18.10;14.77;;;9.10;99.90;;;;;;5052464;28;21295;-82
2021/07/08 12:47:32;;;;;;;18.20;13.43;;;9.10;99.90;;;;;;5050343;28;20735;-83
2021/07/08 12:50:00;;;;;;;19.90;12.85;;;9.00;99.90;;;;;;5064365;28;20488;-83
2021/07/08 12:52:27;;;;;;;17.00;13.52;;;8.90;99.90;;;;;;5067461;28;20716;-83
2021/07/08 12:54:54;;;;;;;16.80;13.45;;;8.90;99.90;;;;;;5061625;28;20397;-82
2021/07/08 12:57:21;;;;;;;16.88;12.40;;;8.80;99.90;;;;;;5060102;28;20428;-83
2021/07/08 13:00:07;;;;;;;17.35;13.25;;;8.80;99.90;;;;;;5068783;28;20394;-82
2021/07/08 13:02:35;;;;;;;23.23;15.70;;;8.70;99.90;;;;;;5054420;28;20380;-83